createdAt,value
2023-05-11T00:01:27.418Z,99.90
2023-05-11T00:03:56.091Z,99.90
2023-05-11T00:06:23.112Z,99.90
2023-05-11T00:08:50.446Z,99.90
2023-05-11T00:11:18.663Z,99.90
2023-05-11T00:13:45.926Z,99.90
2023-05-11T00:16:13.068Z,99.90
2023-05-11T00:18:40.038Z,99.90
2023-05-11T00:21:07.425Z,99.90
2023-05-11T00:23:34.276Z,99.90
2023-05-11T00:26:01.150Z,99.90
2023-05-11T00:28:27.961Z,99.90
2023-05-11T00:30:58.374Z,99.90
2023-05-11T00:38:11.350Z,99.90
2023-05-11T00:40:38.760Z,99.90
2023-05-11T00:43:05.843Z,99.90
2023-05-11T00:45:33.390Z,99.90
2023-05-11T00:48:00.555Z,99.90
2023-05-11T00:50:28.165Z,99.90
2023-05-11T00:52:56.376Z,99.90
2023-05-11T00:55:23.388Z,99.90
2023-05-11T00:57:50.669Z,99.90
2023-05-11T01:00:17.876Z,99.90
2023-05-11T01:02:45.634Z,99.90
2023-05-11T01:05:12.878Z,99.90
2023-05-11T01:08:05.395Z,99.90
2023-05-11T01:10:53.460Z,99.90
2023-05-11T01:13:27.432Z,99.90
2023-05-11T01:15:56.511Z,99.90
2023-05-11T01:18:30.264Z,99.90
2023-05-11T01:21:00.317Z,99.90
2023-05-11T01:23:33.390Z,99.90
2023-05-11T01:26:28.419Z,99.90
2023-05-11T01:29:34.320Z,99.90
2023-05-11T01:32:10.358Z,99.90
2023-05-11T01:34:39.733Z,99.90
2023-05-11T01:37:12.491Z,99.90
2023-05-11T01:39:49.143Z,99.90
2023-05-11T01:42:20.496Z,99.90
2023-05-11T01:44:51.654Z,99.90
2023-05-11T01:47:20.558Z,99.90
2023-05-11T01:49:48.143Z,99.90
2023-05-11T01:52:15.807Z,99.90
2023-05-11T01:54:44.844Z,99.90
2023-05-11T01:57:13.481Z,99.90
2023-05-11T01:59:41.342Z,99.90
2023-05-11T02:02:09.464Z,99.90
2023-05-11T02:04:38.955Z,99.90
2023-05-11T02:07:11.090Z,99.90
2023-05-11T02:09:38.677Z,99.90
2023-05-11T02:12:06.630Z,99.90
2023-05-11T02:14:36.733Z,99.90
2023-05-11T02:17:06.236Z,99.90
2023-05-11T02:19:37.644Z,99.90
2023-05-11T02:22:05.956Z,99.90
2023-05-11T02:24:38.013Z,99.90
2023-05-11T02:27:05.415Z,99.90
2023-05-11T02:29:32.828Z,99.90
2023-05-11T02:32:12.345Z,99.90
2023-05-11T02:34:42.704Z,99.90
2023-05-11T02:37:24.350Z,99.90
2023-05-11T02:39:59.358Z,99.90
2023-05-11T02:42:28.160Z,99.90
2023-05-11T02:45:03.733Z,99.90
2023-05-11T02:47:39.730Z,99.90
2023-05-11T02:50:09.432Z,99.90
2023-05-11T02:52:43.512Z,99.90
2023-05-11T02:55:12.043Z,99.90
2023-05-11T02:57:39.206Z,99.90
2023-05-11T03:00:06.847Z,99.90
2023-05-11T03:02:34.010Z,99.90
2023-05-11T03:05:01.437Z,99.90
2023-05-11T03:07:28.543Z,99.90
2023-05-11T03:09:55.494Z,99.90
2023-05-11T03:12:22.639Z,99.90
2023-05-11T03:14:51.018Z,99.90
2023-05-11T03:17:21.228Z,99.90
2023-05-11T03:19:48.798Z,99.90
2023-05-11T03:22:16.168Z,99.90
2023-05-11T03:24:43.466Z,99.90
2023-05-11T03:27:12.418Z,99.90
2023-05-11T03:29:43.013Z,99.90
2023-05-11T03:32:10.073Z,99.90
2023-05-11T03:34:37.085Z,99.90
2023-05-11T03:37:07.953Z,99.90
2023-05-11T03:39:36.521Z,99.90
2023-05-11T03:42:05.092Z,99.90
2023-05-11T03:44:34.177Z,99.90
2023-05-11T03:47:03.787Z,99.90
2023-05-11T03:49:31.087Z,99.90
2023-05-11T03:51:58.236Z,99.90
2023-05-11T03:54:26.647Z,99.90
2023-05-11T03:56:53.907Z,99.90
2023-05-11T03:59:21.453Z,99.90
2023-05-11T04:01:53.616Z,99.90
2023-05-11T04:04:28.685Z,99.90
2023-05-11T04:06:55.815Z,99.90
2023-05-11T04:09:26.350Z,99.90
2023-05-11T04:11:53.639Z,99.90
2023-05-11T04:14:23.400Z,99.90
2023-05-11T04:16:54.258Z,99.90
2023-05-11T04:19:22.882Z,99.90
2023-05-11T04:21:49.741Z,99.90
2023-05-11T04:24:16.692Z,99.90
2023-05-11T04:26:43.711Z,99.90
2023-05-11T04:29:10.678Z,99.90
2023-05-11T04:31:38.604Z,99.90
2023-05-11T04:34:09.285Z,99.90
2023-05-11T04:36:36.135Z,99.90
2023-05-11T04:39:04.379Z,99.90
2023-05-11T04:41:34.263Z,99.90
2023-05-11T04:44:01.100Z,99.90
2023-05-11T04:46:28.145Z,99.90
2023-05-11T04:48:55.085Z,99.90
2023-05-11T04:51:22.406Z,99.90
2023-05-11T04:53:51.074Z,99.90
2023-05-11T04:56:20.516Z,99.90
2023-05-11T04:58:47.366Z,99.90
2023-05-11T05:01:14.225Z,99.90
2023-05-11T05:03:41.137Z,99.90
2023-05-11T05:06:08.642Z,99.90
2023-05-11T05:08:39.600Z,99.90
2023-05-11T05:11:06.817Z,99.90
2023-05-11T05:13:33.794Z,99.90
2023-05-11T05:16:00.656Z,99.90
2023-05-11T05:18:27.569Z,99.90
2023-05-11T05:20:54.499Z,99.90
2023-05-11T05:23:22.054Z,99.90
2023-05-11T05:25:50.682Z,99.90
2023-05-11T05:28:17.527Z,99.90
2023-05-11T05:30:44.368Z,99.90
2023-05-11T05:33:12.539Z,99.90
2023-05-11T05:35:43.997Z,99.90
2023-05-11T05:38:10.999Z,99.90
2023-05-11T05:40:39.497Z,99.90
2023-05-11T05:43:09.337Z,99.90
2023-05-11T05:45:36.808Z,99.90
2023-05-11T05:48:06.104Z,99.90
2023-05-11T05:50:33.185Z,99.90
2023-05-11T05:53:00.039Z,99.90
2023-05-11T05:55:27.566Z,99.90
2023-05-11T05:57:54.626Z,99.90
2023-05-11T06:00:22.780Z,99.90
2023-05-11T06:02:51.124Z,99.90
2023-05-11T06:05:18.010Z,99.90
2023-05-11T06:07:51.461Z,99.90
2023-05-11T06:10:25.980Z,99.90
2023-05-11T06:12:52.886Z,99.90
2023-05-11T06:15:19.736Z,99.90
2023-05-11T06:17:46.632Z,99.90
2023-05-11T06:20:15.864Z,99.90
2023-05-11T06:22:43.378Z,99.90
2023-05-11T06:25:10.343Z,99.90
2023-05-11T06:27:37.354Z,99.90
2023-05-11T06:30:04.566Z,99.90
2023-05-11T06:32:38.196Z,99.90
2023-05-11T06:35:05.331Z,99.90
2023-05-11T06:37:32.277Z,99.90
2023-05-11T06:39:59.523Z,99.90
2023-05-11T06:42:28.933Z,99.90
2023-05-11T06:44:56.735Z,99.90
2023-05-11T06:47:23.888Z,99.90
2023-05-11T06:49:50.690Z,99.90
2023-05-11T06:52:17.492Z,99.90
2023-05-11T06:54:47.542Z,99.90
2023-05-11T06:57:14.831Z,99.90
2023-05-11T06:59:42.300Z,99.90
2023-05-11T07:02:09.530Z,99.90
2023-05-11T07:04:37.256Z,99.90
2023-05-11T07:07:11.364Z,99.90
2023-05-11T07:09:39.425Z,99.90
2023-05-11T07:12:07.228Z,99.90
2023-05-11T07:14:34.327Z,99.90
2023-05-11T07:17:01.180Z,99.90
2023-05-11T07:19:28.116Z,99.90
2023-05-11T07:21:55.139Z,99.90
2023-05-11T07:24:26.514Z,99.90
2023-05-11T07:26:53.824Z,99.90
2023-05-11T07:29:21.142Z,99.90
2023-05-11T07:31:48.486Z,99.90
2023-05-11T07:34:20.331Z,99.90
2023-05-11T07:36:48.120Z,99.90
2023-05-11T07:39:24.960Z,99.90
2023-05-11T07:42:19.896Z,99.90
2023-05-11T07:44:47.512Z,99.90
2023-05-11T07:47:14.959Z,99.90
2023-05-11T07:52:44.320Z,99.90
2023-05-11T07:55:39.494Z,99.90
2023-05-11T07:58:06.937Z,99.90
2023-05-11T08:00:36.974Z,99.90
2023-05-11T08:03:13.561Z,99.90
2023-05-11T08:05:56.873Z,99.90
2023-05-11T08:08:25.173Z,99.90
2023-05-11T08:10:52.870Z,99.90
2023-05-11T08:32:26.363Z,99.90
2023-05-11T08:34:53.376Z,99.90
2023-05-11T08:37:20.211Z,99.90
2023-05-11T08:39:48.067Z,99.90
2023-05-11T08:42:16.759Z,99.90
2023-05-11T08:44:44.690Z,99.90
2023-05-11T08:47:22.606Z,99.90
2023-05-11T08:49:52.733Z,99.90
2023-05-11T08:52:19.808Z,99.90
2023-05-11T08:54:47.967Z,99.90
2023-05-11T08:57:15.463Z,99.90
2023-05-11T08:59:46.045Z,99.90
2023-05-11T09:02:20.162Z,99.90
2023-05-11T09:04:48.865Z,99.90
2023-05-11T09:07:25.775Z,99.90
2023-05-11T09:09:53.025Z,99.70
2023-05-11T09:12:20.296Z,99.90
2023-05-11T09:14:47.643Z,99.60
2023-05-11T09:17:19.274Z,99.40
2023-05-11T09:23:27.315Z,98.40
2023-05-11T09:25:54.841Z,98.40
2023-05-11T09:31:06.548Z,98.10
2023-05-11T09:33:33.630Z,97.20
2023-05-11T09:36:00.593Z,96.80
2023-05-11T09:38:27.516Z,97.80
2023-05-11T09:41:03.475Z,97.10
2023-05-11T09:43:31.457Z,96.20
2023-05-11T09:46:06.267Z,95.90
2023-05-11T09:48:35.126Z,95.80
2023-05-11T09:51:06.231Z,94.50
2023-05-11T09:53:46.369Z,94.60
2023-05-11T09:56:16.889Z,95.00
2023-05-11T09:58:51.472Z,95.30
2023-05-11T10:01:29.606Z,94.80
2023-05-11T10:04:08.943Z,96.20
2023-05-11T10:06:53.404Z,95.90
2023-05-11T10:09:24.795Z,95.50
2023-05-11T10:11:53.252Z,94.20
2023-05-11T10:14:20.614Z,94.20
2023-05-11T10:16:48.130Z,93.10
2023-05-11T10:19:16.048Z,93.40
2023-05-11T10:21:43.309Z,93.70
2023-05-11T10:24:11.565Z,94.00
2023-05-11T10:26:38.963Z,93.80
2023-05-11T10:29:08.689Z,93.10
2023-05-11T10:31:38.459Z,93.00
2023-05-11T10:34:06.930Z,92.70
2023-05-11T10:36:34.642Z,93.20
2023-05-11T10:39:01.646Z,94.10
2023-05-11T10:41:54.909Z,94.30
2023-05-11T10:44:59.328Z,94.30
2023-05-11T10:47:41.747Z,94.70
2023-05-11T10:50:59.928Z,94.60
2023-05-11T10:53:38.954Z,94.90
2023-05-11T10:56:25.065Z,94.70
2023-05-11T10:59:27.515Z,94.70
2023-05-11T11:01:58.850Z,94.70
2023-05-11T11:04:27.245Z,93.90
2023-05-11T11:07:09.533Z,93.30
2023-05-11T11:09:56.836Z,94.10
2023-05-11T11:12:27.618Z,94.50
2023-05-11T11:15:02.873Z,93.70
2023-05-11T11:17:35.846Z,93.90
2023-05-11T11:20:07.752Z,93.80
2023-05-11T11:22:34.765Z,93.70
2023-05-11T11:25:07.106Z,93.60
2023-05-11T11:27:49.266Z,93.80
2023-05-11T11:30:20.294Z,94.30
2023-05-11T11:32:56.065Z,93.80
2023-05-11T11:35:46.289Z,93.50
2023-05-11T11:38:14.198Z,93.70
2023-05-11T11:40:52.813Z,94.10
2023-05-11T11:43:22.355Z,95.70
2023-05-11T11:45:56.026Z,96.30
2023-05-11T11:48:30.415Z,96.70
2023-05-11T11:51:07.515Z,97.20
2023-05-11T11:53:55.113Z,98.10
2023-05-11T11:56:21.939Z,98.20
2023-05-11T11:58:48.897Z,99.90
2023-05-11T12:01:27.793Z,99.90
2023-05-11T12:04:36.794Z,99.90
2023-05-11T12:07:08.824Z,99.90
2023-05-11T12:09:40.131Z,99.90
2023-05-11T12:12:08.863Z,99.90
2023-05-11T12:14:36.258Z,99.90
2023-05-11T12:17:13.700Z,99.90
2023-05-11T12:19:43.362Z,99.90
2023-05-11T12:22:14.542Z,99.90
2023-05-11T12:24:41.547Z,99.90
2023-05-11T12:27:08.812Z,99.90
2023-05-11T12:29:37.923Z,99.90
2023-05-11T12:32:11.623Z,99.90
2023-05-11T12:34:38.538Z,99.90
2023-05-11T12:37:09.738Z,99.90
2023-05-11T12:39:38.061Z,99.90
2023-05-11T12:42:05.472Z,99.90
2023-05-11T12:44:33.077Z,99.90
2023-05-11T12:47:00.450Z,99.90
2023-05-11T12:49:28.017Z,99.90
2023-05-11T12:51:55.132Z,99.90
2023-05-11T12:54:48.112Z,99.90
2023-05-11T12:57:29.046Z,99.90
2023-05-11T13:00:10.577Z,99.90
2023-05-11T13:02:58.419Z,99.90
2023-05-11T13:05:26.923Z,99.90
2023-05-11T13:08:10.091Z,99.90
2023-05-11T13:10:37.147Z,99.90
2023-05-11T13:13:03.989Z,99.90
2023-05-11T13:15:31.501Z,99.90
2023-05-11T13:18:02.987Z,99.90
2023-05-11T13:20:34.258Z,99.90
2023-05-11T13:23:10.006Z,99.90
2023-05-11T13:25:51.837Z,99.90
2023-05-11T13:28:21.296Z,99.90
2023-05-11T13:30:50.414Z,99.90
2023-05-11T13:33:20.503Z,99.90
2023-05-11T13:35:47.506Z,99.90
2023-05-11T13:38:14.569Z,99.90
2023-05-11T13:40:41.741Z,99.90
2023-05-11T13:43:08.768Z,99.90
2023-05-11T13:45:44.685Z,99.90
2023-05-11T13:48:11.983Z,99.90
2023-05-11T13:50:39.277Z,99.90
2023-05-11T13:53:14.027Z,99.90
2023-05-11T13:55:42.653Z,99.90
2023-05-11T13:58:11.681Z,99.90
2023-05-11T14:00:43.486Z,99.90
2023-05-11T14:03:13.343Z,99.90
2023-05-11T14:05:41.395Z,99.90
2023-05-11T14:08:08.441Z,99.90
2023-05-11T14:10:36.683Z,99.90
2023-05-11T14:13:06.549Z,99.90
2023-05-11T14:15:34.597Z,99.90
2023-05-11T14:18:04.999Z,99.90
2023-05-11T14:20:32.219Z,99.90
2023-05-11T14:22:59.227Z,99.90
2023-05-11T14:25:27.034Z,99.90
2023-05-11T14:27:55.494Z,99.90
2023-05-11T14:30:23.733Z,99.90
2023-05-11T14:32:52.991Z,99.90
2023-05-11T14:35:21.896Z,99.90
2023-05-11T14:37:49.040Z,99.90
2023-05-11T14:40:16.623Z,99.90
2023-05-11T14:42:43.573Z,99.90
2023-05-11T14:45:11.283Z,99.90
2023-05-11T14:47:38.595Z,99.90
2023-05-11T14:50:06.463Z,99.90
2023-05-11T14:52:33.438Z,99.90
2023-05-11T14:55:00.376Z,99.90
2023-05-11T14:57:27.734Z,99.90
2023-05-11T15:00:00.232Z,99.90
2023-05-11T15:02:28.842Z,99.90
2023-05-11T15:04:56.000Z,99.90
2023-05-11T15:07:23.171Z,99.90
2023-05-11T15:09:50.825Z,99.90
2023-05-11T15:12:17.820Z,99.90
2023-05-11T15:14:44.649Z,99.90
2023-05-11T15:17:11.865Z,99.90
2023-05-11T15:19:38.901Z,99.90
2023-05-11T15:22:06.133Z,99.90
2023-05-11T15:24:34.039Z,99.90
2023-05-11T15:27:01.119Z,99.90
2023-05-11T15:29:28.125Z,99.90
2023-05-11T15:31:55.097Z,99.90
2023-05-11T15:34:22.399Z,99.90
2023-05-11T15:36:49.901Z,99.90
2023-05-11T15:39:20.487Z,99.90
2023-05-11T15:41:47.533Z,99.90
2023-05-11T15:44:14.690Z,99.90
2023-05-11T15:46:41.852Z,99.90
2023-05-11T15:49:09.145Z,99.90
2023-05-11T15:51:36.999Z,99.90
2023-05-11T15:54:04.064Z,99.90
2023-05-11T15:56:30.966Z,99.90
2023-05-11T15:58:57.941Z,99.90
2023-05-11T16:01:25.356Z,99.90
2023-05-11T16:03:52.324Z,99.90
2023-05-11T16:06:19.517Z,99.90
2023-05-11T16:08:46.573Z,99.90
2023-05-11T16:11:13.555Z,99.90
2023-05-11T16:13:40.554Z,99.90
2023-05-11T16:16:07.717Z,99.90
2023-05-11T16:21:04.170Z,99.90
2023-05-11T16:23:31.539Z,99.90
2023-05-11T16:25:58.655Z,99.90
2023-05-11T16:28:25.696Z,99.90
2023-05-11T16:30:52.822Z,99.90
2023-05-11T16:33:20.330Z,99.90
2023-05-11T16:35:47.317Z,99.90
2023-05-11T16:38:21.561Z,99.90
2023-05-11T16:40:49.801Z,99.90
2023-05-11T16:43:17.000Z,99.90
2023-05-11T16:45:44.612Z,99.90
2023-05-11T16:48:11.735Z,99.90
2023-05-11T16:50:38.829Z,99.90
2023-05-11T16:53:06.403Z,99.90
2023-05-11T16:55:33.405Z,99.90
2023-05-11T16:58:01.312Z,99.90
2023-05-11T17:00:28.673Z,99.90
2023-05-11T17:02:56.693Z,99.90
2023-05-11T17:05:24.230Z,99.90
2023-05-11T17:07:51.858Z,99.90
2023-05-11T17:10:19.265Z,99.90
2023-05-11T17:12:46.784Z,99.90
2023-05-11T17:15:14.135Z,99.90
2023-05-11T17:17:41.311Z,99.90
2023-05-11T17:20:10.279Z,99.90
2023-05-11T17:22:38.881Z,99.90
2023-05-11T17:25:06.520Z,99.90
2023-05-11T17:27:35.494Z,99.90
2023-05-11T17:30:02.741Z,99.90
2023-05-11T17:32:30.353Z,99.90
2023-05-11T17:34:57.692Z,99.90
2023-05-11T17:37:31.759Z,99.90
2023-05-11T17:40:00.967Z,99.90
2023-05-11T17:42:28.744Z,99.90
2023-05-11T17:44:56.577Z,99.90
2023-05-11T17:47:23.669Z,99.90
2023-05-11T17:49:50.624Z,99.90
2023-05-11T17:52:17.608Z,99.90
2023-05-11T17:54:44.551Z,99.90
2023-05-11T17:57:11.485Z,99.90
2023-05-11T17:59:38.515Z,99.90
2023-05-11T18:02:05.542Z,99.90
2023-05-11T18:04:32.483Z,99.90
2023-05-11T18:07:00.244Z,99.90
2023-05-11T18:09:27.538Z,99.90
2023-05-11T18:11:54.713Z,99.90
2023-05-11T18:14:21.610Z,99.90
2023-05-11T18:16:50.538Z,99.90
2023-05-11T18:19:18.178Z,99.90
2023-05-11T18:21:45.606Z,99.90
2023-05-11T18:24:14.692Z,99.90
2023-05-11T18:26:42.086Z,99.90
2023-05-11T18:29:08.983Z,99.90
2023-05-11T18:31:36.229Z,99.90
2023-05-11T18:34:04.385Z,99.90
2023-05-11T18:36:31.669Z,99.90
2023-05-11T18:38:58.805Z,99.90
2023-05-11T18:41:26.068Z,99.90
2023-05-11T18:43:54.462Z,99.90
2023-05-11T18:46:21.841Z,99.90
2023-05-11T18:48:52.966Z,99.90
2023-05-11T18:51:22.652Z,99.90
2023-05-11T18:53:49.972Z,99.90
2023-05-11T18:56:17.438Z,99.90
2023-05-11T18:58:45.125Z,99.90
2023-05-11T19:01:12.502Z,99.90
2023-05-11T19:03:39.783Z,99.90
2023-05-11T19:06:07.803Z,99.90
2023-05-11T19:08:35.490Z,99.90
2023-05-11T19:11:07.849Z,99.90
2023-05-11T19:13:35.339Z,99.90
2023-05-11T19:16:03.645Z,99.90
2023-05-11T19:18:32.270Z,99.90
2023-05-11T19:20:59.261Z,99.90
2023-05-11T19:23:26.317Z,99.90
2023-05-11T19:25:53.390Z,99.90
2023-05-11T19:28:20.455Z,99.90
2023-05-11T19:30:47.398Z,99.90
2023-05-11T19:33:14.483Z,99.90
2023-05-11T19:35:41.653Z,99.90
2023-05-11T19:38:08.843Z,99.90
2023-05-11T19:43:06.177Z,99.90
2023-05-11T19:45:34.089Z,99.90
2023-05-11T19:48:01.360Z,99.90
2023-05-11T19:50:28.598Z,99.90
2023-05-11T19:52:55.768Z,99.90
2023-05-11T19:55:23.135Z,99.90
2023-05-11T19:57:50.869Z,99.90
2023-05-11T20:00:18.792Z,99.90
2023-05-11T20:02:47.025Z,99.90
2023-05-11T20:05:14.047Z,99.90
2023-05-11T20:07:41.054Z,99.90
2023-05-11T20:10:08.537Z,99.90
2023-05-11T20:12:37.852Z,99.90
2023-05-11T20:15:09.010Z,99.90
2023-05-11T20:17:36.252Z,99.90
2023-05-11T20:20:03.607Z,99.90
2023-05-11T20:22:31.424Z,99.90
2023-05-11T20:24:58.423Z,99.90
2023-05-11T20:27:25.409Z,99.90
2023-05-11T20:29:52.859Z,99.90
2023-05-11T20:32:19.985Z,99.90
2023-05-11T20:34:47.355Z,99.90
2023-05-11T20:37:14.824Z,99.90
2023-05-11T20:39:41.837Z,99.90
2023-05-11T20:42:09.040Z,99.90
2023-05-11T20:44:36.253Z,99.90
2023-05-11T20:47:04.104Z,99.90
2023-05-11T20:49:38.755Z,99.90
2023-05-11T20:52:07.582Z,99.90
2023-05-11T20:54:35.856Z,99.90
2023-05-11T20:57:08.187Z,99.90
2023-05-11T21:02:05.461Z,99.90
2023-05-11T21:04:32.507Z,99.90
2023-05-11T21:06:59.482Z,99.90
2023-05-11T21:09:26.583Z,99.90
2023-05-11T21:11:53.576Z,99.90
2023-05-11T21:14:20.790Z,99.90
2023-05-11T21:16:48.146Z,99.90
2023-05-11T21:19:18.708Z,99.90
2023-05-11T21:21:47.027Z,99.90
2023-05-11T21:24:14.166Z,99.90
2023-05-11T21:26:41.617Z,99.90
2023-05-11T21:29:12.160Z,99.90
2023-05-11T21:31:39.287Z,99.90
2023-05-11T21:34:06.252Z,99.90
2023-05-11T21:36:33.440Z,99.90
2023-05-11T21:39:00.634Z,99.90
2023-05-11T21:41:27.722Z,99.90
2023-05-11T21:43:54.787Z,99.90
2023-05-11T21:46:22.022Z,99.90
2023-05-11T21:48:49.271Z,99.90
2023-05-11T21:51:16.341Z,99.90
2023-05-11T21:53:43.302Z,99.90
2023-05-11T21:56:10.498Z,99.90
2023-05-11T21:58:38.012Z,99.90
2023-05-11T22:01:05.320Z,99.90
2023-05-11T22:03:32.637Z,99.90
2023-05-11T22:05:59.603Z,99.90
2023-05-11T22:08:26.830Z,99.90
2023-05-11T22:10:54.095Z,99.90
2023-05-11T22:13:22.183Z,99.90
2023-05-11T22:15:49.255Z,99.90
2023-05-11T22:18:16.607Z,99.90
2023-05-11T22:20:43.718Z,99.90
2023-05-11T22:23:10.676Z,99.90
2023-05-11T22:25:37.618Z,99.90
2023-05-11T22:28:05.585Z,99.90
2023-05-11T22:30:32.540Z,99.90
2023-05-11T22:32:59.630Z,99.90
2023-05-11T22:35:26.903Z,99.90
2023-05-11T22:37:54.271Z,99.90
2023-05-11T22:40:21.564Z,99.90
2023-05-11T22:42:48.542Z,99.90
2023-05-11T22:45:16.638Z,99.90
2023-05-11T22:47:43.841Z,99.90
2023-05-11T22:50:12.088Z,99.90
2023-05-11T22:52:39.069Z,99.90
2023-05-11T22:55:06.829Z,99.90
2023-05-11T22:57:33.801Z,99.90
2023-05-11T23:00:00.783Z,99.90
2023-05-11T23:02:29.803Z,99.90
2023-05-11T23:04:56.881Z,99.90
2023-05-11T23:07:24.083Z,99.90
2023-05-11T23:09:53.015Z,99.90
2023-05-11T23:12:20.155Z,99.90
2023-05-11T23:14:47.444Z,99.90
2023-05-11T23:17:14.608Z,99.90
2023-05-11T23:19:41.832Z,99.90
2023-05-11T23:22:08.933Z,99.90
2023-05-11T23:24:36.218Z,99.90
2023-05-11T23:27:03.443Z,99.90
2023-05-11T23:29:30.570Z,99.90
2023-05-11T23:31:57.610Z,99.90
2023-05-11T23:34:24.554Z,99.90
2023-05-11T23:36:51.637Z,99.90
2023-05-11T23:39:18.688Z,99.90
2023-05-11T23:41:45.644Z,99.90
2023-05-11T23:44:12.857Z,99.90
2023-05-11T23:46:40.272Z,99.90
2023-05-11T23:49:08.011Z,99.90
2023-05-11T23:51:35.095Z,99.90
2023-05-11T23:54:02.175Z,99.90
2023-05-11T23:56:29.328Z,99.90
2023-05-11T23:58:56.323Z,99.90
